Sacramento, CA

11:18 PM PDT on August 25, 2016 (GMT -0700)
Mansion Flats | | Change Station

Elev 24 ft 38.58 °N, 121.48 °W | Updated 1 second ago

Clear
Clear
62.5 °F
Feels Like 62.5 °F
N
2.2
Wind Variable Wind from SSE
Gusts 6.2 mph

Today
High -- | Low -- °F
--% Chance of Precip.
Yesterday
High -- | Low -- °F
Precip. -- in
Pressure 29.83 in
Visibility 10.0 miles
Clouds Clear
Dew Point 56 °F
Humidity 80%
Rainfall 0.00 in
Snow Depth Not available.
6:29 AM 7:45 PM
Last Quarter, 38% visible
METAR KSAC 260553Z AUTO 20008KT 10SM CLR 16/12 A2983 RMK AO2 SLP101 T01560122 10300 20156 51012
Pressure 29.83 in
Visibility 10.0 miles
Clouds Clear
Dew Point 56 °F
Humidity 80%
Rainfall 0.00 in
Snow Depth Not available.
6:29 AM 7:45 PM
Last Quarter, 38% visible
METAR KSAC 260553Z AUTO 20008KT 10SM CLR 16/12 A2983 RMK AO2 SLP101 T01560122 10300 20156 51012

10-Day Weather Forecast

Almanac

Astronomy

Aug. 25, 2016 Rise Set
Actual Time
Civil Twilight
Nautical Twilight
Astronomical Twilight
Moon
Length of Visible Light
Length of Day
Tomorrow will be .
, % of the Moon is Illuminated

Today's Extremes

State Highs State Lows

Community

WunderPhotos

Upload Photos

1,935,057 photos uploaded!

WunderBlog® & News

Nearby

Air Quality

  Air Quality AQ Index Pollutant
Not available.

Snow Depth

Station Depth Elevation

Earthquake Activity

City Distance Mag. Time & Date
Minimum magnitude displayed is 2.5.

Coastal Water Temperatures

Place Temperature

Stations

Nearby Weather Stations

Station Location Temp. Windchill Dew Point Humidity Wind Precip. Elev Updated Type
                   

Watches & Warnings

There are currently no watches in effect.